sensor_id;sensor_type;location;lat;lon;timestamp;pressure;altitude;pressure_sealevel;temperature;humidity
58771;BME280;44539;42.962;1.596;2023-02-08T00:22:22;98023.53;;;2.09;100.00
58771;BME280;44539;42.962;1.596;2023-02-08T00:24:49;98022.00;;;1.92;100.00
58771;BME280;44539;42.962;1.596;2023-02-08T00:27:15;98011.22;;;1.97;100.00
58771;BME280;44539;42.962;1.596;2023-02-08T00:29:41;98005.56;;;1.90;100.00
58771;BME280;44539;42.962;1.596;2023-02-08T00:32:07;97996.09;;;1.88;100.00
58771;BME280;44539;42.962;1.596;2023-02-08T00:34:32;98000.38;;;1.76;100.00
58771;BME280;44539;42.962;1.596;2023-02-08T00:36:59;98010.44;;;1.82;100.00
58771;BME280;44539;42.962;1.596;2023-02-08T00:39:25;97998.22;;;1.68;100.00
58771;BME280;44539;42.962;1.596;2023-02-08T00:41:50;98001.69;;;1.27;100.00
58771;BME280;44539;42.962;1.596;2023-02-08T00:44:16;97999.75;;;1.16;100.00
58771;BME280;44539;42.962;1.596;2023-02-08T00:46:41;98009.31;;;1.17;100.00
58771;BME280;44539;42.962;1.596;2023-02-08T00:55:50;97994.56;;;0.88;100.00
58771;BME280;44539;42.962;1.596;2023-02-08T00:58:15;97995.56;;;0.99;100.00
58771;BME280;44539;42.962;1.596;2023-02-08T01:00:41;97998.94;;;1.01;100.00
58771;BME280;44539;42.962;1.596;2023-02-08T01:03:06;97995.03;;;0.94;100.00
58771;BME280;44539;42.962;1.596;2023-02-08T01:05:31;97998.19;;;0.85;100.00
58771;BME280;44539;42.962;1.596;2023-02-08T01:07:57;97998.38;;;0.82;100.00
58771;BME280;44539;42.962;1.596;2023-02-08T01:10:22;97997.63;;;0.94;100.00
58771;BME280;44539;42.962;1.596;2023-02-08T01:12:47;97999.59;;;0.76;100.00
58771;BME280;44539;42.962;1.596;2023-02-08T01:15:13;97999.31;;;0.67;100.00
58771;BME280;44539;42.962;1.596;2023-02-08T01:17:38;98000.72;;;0.58;100.00
58771;BME280;44539;42.962;1.596;2023-02-08T01:20:04;98001.06;;;0.52;100.00
58771;BME280;44539;42.962;1.596;2023-02-08T01:22:30;98005.28;;;0.54;100.00
58771;BME280;44539;42.962;1.596;2023-02-08T01:24:55;98000.13;;;0.38;100.00
58771;BME280;44539;42.962;1.596;2023-02-08T01:27:20;98006.63;;;0.31;100.00
58771;BME280;44539;42.962;1.596;2023-02-08T01:29:46;98003.19;;;0.31;100.00
58771;BME280;44539;42.962;1.596;2023-02-08T01:32:11;98003.22;;;0.15;100.00
58771;BME280;44539;42.962;1.596;2023-02-08T01:34:37;98000.88;;;0.10;100.00
58771;BME280;44539;42.962;1.596;2023-02-08T01:37:02;98007.59;;;0.00;100.00
58771;BME280;44539;42.962;1.596;2023-02-08T01:39:27;98011.59;;;0.06;100.00
58771;BME280;44539;42.962;1.596;2023-02-08T01:41:53;98013.09;;;-0.21;100.00
58771;BME280;44539;42.962;1.596;2023-02-08T01:47:02;98021.16;;;-0.09;100.00
58771;BME280;44539;42.962;1.596;2023-02-08T01:49:31;98022.66;;;-0.05;100.00
58771;BME280;44539;42.962;1.596;2023-02-08T01:52:05;98018.47;;;-0.08;100.00
58771;BME280;44539;42.962;1.596;2023-02-08T01:54:41;98029.44;;;-0.17;100.00
58771;BME280;44539;42.962;1.596;2023-02-08T01:57:08;98026.72;;;-0.15;100.00
58771;BME280;44539;42.962;1.596;2023-02-08T01:59:42;98031.78;;;-0.12;100.00
58771;BME280;44539;42.962;1.596;2023-02-08T02:02:11;98029.19;;;-0.12;100.00
58771;BME280;44539;42.962;1.596;2023-02-08T02:04:38;98033.31;;;-0.24;100.00
58771;BME280;44539;42.962;1.596;2023-02-08T02:07:04;98026.16;;;-0.36;100.00
58771;BME280;44539;42.962;1.596;2023-02-08T02:10:04;98024.16;;;-0.47;100.00
58771;BME280;44539;42.962;1.596;2023-02-08T02:12:33;98029.28;;;-0.46;100.00
58771;BME280;44539;42.962;1.596;2023-02-08T02:15:00;98021.72;;;-0.50;100.00
58771;BME280;44539;42.962;1.596;2023-02-08T02:17:26;98024.41;;;-0.52;100.00
58771;BME280;44539;42.962;1.596;2023-02-08T02:36:02;98011.78;;;-0.91;100.00
58771;BME280;44539;42.962;1.596;2023-02-08T02:44:28;98014.13;;;-0.87;100.00
58771;BME280;44539;42.962;1.596;2023-02-08T02:47:19;98012.13;;;-0.82;100.00
58771;BME280;44539;42.962;1.596;2023-02-08T02:49:53;98015.59;;;-0.81;100.00
58771;BME280;44539;42.962;1.596;2023-02-08T02:52:27;98014.06;;;-0.85;100.00
58771;BME280;44539;42.962;1.596;2023-02-08T02:55:03;98020.69;;;-0.95;100.00
58771;BME280;44539;42.962;1.596;2023-02-08T02:57:31;98025.16;;;-0.97;100.00
58771;BME280;44539;42.962;1.596;2023-02-08T02:59:58;98029.28;;;-0.93;100.00
58771;BME280;44539;42.962;1.596;2023-02-08T03:02:27;98028.91;;;-1.03;100.00
58771;BME280;44539;42.962;1.596;2023-02-08T03:04:54;98028.31;;;-1.08;100.00
58771;BME280;44539;42.962;1.596;2023-02-08T03:23:56;98016.66;;;-1.34;100.00
58771;BME280;44539;42.962;1.596;2023-02-08T03:26:34;98023.03;;;-1.40;100.00
58771;BME280;44539;42.962;1.596;2023-02-08T03:31:54;98020.75;;;-1.46;100.00
58771;BME280;44539;42.962;1.596;2023-02-08T03:37:25;98022.66;;;-1.50;100.00
58771;BME280;44539;42.962;1.596;2023-02-08T03:39:57;98018.00;;;-1.60;100.00
58771;BME280;44539;42.962;1.596;2023-02-08T03:42:26;98018.28;;;-1.67;100.00
58771;BME280;44539;42.962;1.596;2023-02-08T03:45:00;98022.91;;;-1.72;100.00
58771;BME280;44539;42.962;1.596;2023-02-08T03:47:28;98020.25;;;-1.70;100.00
58771;BME280;44539;42.962;1.596;2023-02-08T03:49:59;98016.63;;;-1.68;100.00
58771;BME280;44539;42.962;1.596;2023-02-08T03:52:27;98012.66;;;-1.75;100.00
58771;BME280;44539;42.962;1.596;2023-02-08T03:54:57;98022.53;;;-1.64;100.00
58771;BME280;44539;42.962;1.596;2023-02-08T03:57:28;98019.75;;;-1.61;100.00
58771;BME280;44539;42.962;1.596;2023-02-08T03:59:59;98019.00;;;-1.63;100.00
58771;BME280;44539;42.962;1.596;2023-02-08T04:02:27;98017.41;;;-1.83;100.00
58771;BME280;44539;42.962;1.596;2023-02-08T04:04:54;98029.25;;;-1.77;100.00
58771;BME280;44539;42.962;1.596;2023-02-08T04:07:21;98024.91;;;-1.77;100.00
58771;BME280;44539;42.962;1.596;2023-02-08T04:09:47;98020.47;;;-1.75;100.00
58771;BME280;44539;42.962;1.596;2023-02-08T04:12:12;98028.91;;;-1.87;100.00
58771;BME280;44539;42.962;1.596;2023-02-08T04:14:37;98026.53;;;-1.74;100.00
58771;BME280;44539;42.962;1.596;2023-02-08T04:17:03;98024.75;;;-1.74;100.00
58771;BME280;44539;42.962;1.596;2023-02-08T04:19:29;98030.66;;;-1.70;100.00
58771;BME280;44539;42.962;1.596;2023-02-08T04:21:54;98031.25;;;-1.82;100.00
58771;BME280;44539;42.962;1.596;2023-02-08T04:24:20;98033.41;;;-1.91;100.00
58771;BME280;44539;42.962;1.596;2023-02-08T04:26:45;98035.16;;;-1.91;100.00
58771;BME280;44539;42.962;1.596;2023-02-08T04:29:11;98034.94;;;-1.87;100.00
58771;BME280;44539;42.962;1.596;2023-02-08T04:31:37;98037.31;;;-1.99;100.00
58771;BME280;44539;42.962;1.596;2023-02-08T04:34:02;98039.75;;;-1.96;100.00
58771;BME280;44539;42.962;1.596;2023-02-08T04:36:28;98040.19;;;-2.06;100.00
58771;BME280;44539;42.962;1.596;2023-02-08T04:38:53;98038.31;;;-2.02;100.00
58771;BME280;44539;42.962;1.596;2023-02-08T04:41:19;98042.28;;;-1.95;100.00
58771;BME280;44539;42.962;1.596;2023-02-08T04:43:44;98044.28;;;-2.00;100.00
58771;BME280;44539;42.962;1.596;2023-02-08T04:46:10;98043.03;;;-1.93;100.00
58771;BME280;44539;42.962;1.596;2023-02-08T04:48:35;98033.94;;;-2.01;100.00
58771;BME280;44539;42.962;1.596;2023-02-08T04:51:01;98031.31;;;-2.01;100.00
58771;BME280;44539;42.962;1.596;2023-02-08T04:53:26;98031.69;;;-2.09;100.00
58771;BME280;44539;42.962;1.596;2023-02-08T04:55:52;98038.13;;;-1.99;100.00
58771;BME280;44539;42.962;1.596;2023-02-08T04:58:17;98027.19;;;-2.06;100.00
58771;BME280;44539;42.962;1.596;2023-02-08T05:00:43;98029.19;;;-2.11;100.00
58771;BME280;44539;42.962;1.596;2023-02-08T05:03:09;98038.28;;;-2.19;100.00
58771;BME280;44539;42.962;1.596;2023-02-08T05:05:35;98028.47;;;-2.14;100.00
58771;BME280;44539;42.962;1.596;2023-02-08T05:08:01;98029.94;;;-2.09;100.00
58771;BME280;44539;42.962;1.596;2023-02-08T05:10:27;98023.56;;;-2.20;100.00
58771;BME280;44539;42.962;1.596;2023-02-08T05:12:52;98024.41;;;-2.20;100.00
58771;BME280;44539;42.962;1.596;2023-02-08T05:15:18;98024.28;;;-2.17;100.00
58771;BME280;44539;42.962;1.596;2023-02-08T05:17:43;98021.50;;;-2.14;100.00
58771;BME280;44539;42.962;1.596;2023-02-08T05:20:09;98023.97;;;-2.11;100.00
58771;BME280;44539;42.962;1.596;2023-02-08T05:22:35;98023.09;;;-2.29;100.00
58771;BME280;44539;42.962;1.596;2023-02-08T05:25:01;98029.84;;;-2.24;100.00
58771;BME280;44539;42.962;1.596;2023-02-08T05:27:26;98029.69;;;-2.39;100.00
58771;BME280;44539;42.962;1.596;2023-02-08T05:29:52;98035.94;;;-2.43;100.00
58771;BME280;44539;42.962;1.596;2023-02-08T05:32:17;98025.81;;;-2.49;100.00
58771;BME280;44539;42.962;1.596;2023-02-08T05:34:43;98025.88;;;-2.51;100.00
58771;BME280;44539;42.962;1.596;2023-02-08T05:37:09;98018.69;;;-2.46;100.00
58771;BME280;44539;42.962;1.596;2023-02-08T05:39:34;98032.03;;;-2.52;100.00
58771;BME280;44539;42.962;1.596;2023-02-08T05:41:59;98039.81;;;-2.52;100.00
58771;BME280;44539;42.962;1.596;2023-02-08T05:44:25;98040.75;;;-2.35;100.00
58771;BME280;44539;42.962;1.596;2023-02-08T05:46:50;98039.34;;;-2.23;100.00
58771;BME280;44539;42.962;1.596;2023-02-08T05:49:16;98028.94;;;-2.23;100.00
58771;BME280;44539;42.962;1.596;2023-02-08T05:51:41;98034.38;;;-2.28;100.00
58771;BME280;44539;42.962;1.596;2023-02-08T05:54:07;98033.19;;;-2.40;100.00
58771;BME280;44539;42.962;1.596;2023-02-08T05:56:33;98046.09;;;-2.56;100.00
58771;BME280;44539;42.962;1.596;2023-02-08T05:59:00;98039.19;;;-2.57;100.00
58771;BME280;44539;42.962;1.596;2023-02-08T06:01:26;98036.09;;;-2.65;100.00
58771;BME280;44539;42.962;1.596;2023-02-08T06:03:51;98036.88;;;-2.82;100.00
58771;BME280;44539;42.962;1.596;2023-02-08T06:06:18;98043.50;;;-2.75;100.00
58771;BME280;44539;42.962;1.596;2023-02-08T06:08:44;98049.25;;;-2.87;100.00
58771;BME280;44539;42.962;1.596;2023-02-08T06:11:09;98062.09;;;-2.84;100.00
58771;BME280;44539;42.962;1.596;2023-02-08T06:13:35;98056.59;;;-2.78;100.00
58771;BME280;44539;42.962;1.596;2023-02-08T06:16:00;98058.94;;;-2.72;100.00
58771;BME280;44539;42.962;1.596;2023-02-08T06:18:26;98057.09;;;-2.70;100.00
58771;BME280;44539;42.962;1.596;2023-02-08T06:20:52;98063.41;;;-2.75;100.00
58771;BME280;44539;42.962;1.596;2023-02-08T06:23:18;98071.88;;;-2.89;100.00
58771;BME280;44539;42.962;1.596;2023-02-08T06:25:43;98074.41;;;-2.88;100.00
58771;BME280;44539;42.962;1.596;2023-02-08T06:28:09;98088.84;;;-3.01;100.00
58771;BME280;44539;42.962;1.596;2023-02-08T06:30:36;98088.00;;;-3.01;100.00
58771;BME280;44539;42.962;1.596;2023-02-08T06:33:01;98096.63;;;-3.01;100.00
58771;BME280;44539;42.962;1.596;2023-02-08T06:35:26;98097.06;;;-2.91;100.00
58771;BME280;44539;42.962;1.596;2023-02-08T06:37:52;98094.47;;;-2.91;100.00
58771;BME280;44539;42.962;1.596;2023-02-08T06:40:18;98104.44;;;-3.01;100.00
58771;BME280;44539;42.962;1.596;2023-02-08T06:42:45;98102.44;;;-2.94;100.00
58771;BME280;44539;42.962;1.596;2023-02-08T06:45:11;98106.44;;;-2.87;100.00
58771;BME280;44539;42.962;1.596;2023-02-08T06:47:36;98112.06;;;-2.77;100.00
58771;BME280;44539;42.962;1.596;2023-02-08T06:50:02;98116.13;;;-2.72;100.00
58771;BME280;44539;42.962;1.596;2023-02-08T06:52:28;98127.31;;;-2.70;100.00
58771;BME280;44539;42.962;1.596;2023-02-08T06:54:53;98109.84;;;-2.66;100.00
58771;BME280;44539;42.962;1.596;2023-02-08T06:57:18;98115.94;;;-2.67;100.00
58771;BME280;44539;42.962;1.596;2023-02-08T06:59:44;98111.72;;;-2.70;100.00
58771;BME280;44539;42.962;1.596;2023-02-08T07:02:15;98118.63;;;-2.69;100.00
58771;BME280;44539;42.962;1.596;2023-02-08T07:04:41;98122.13;;;-2.70;100.00
58771;BME280;44539;42.962;1.596;2023-02-08T07:07:07;98119.41;;;-2.67;100.00
58771;BME280;44539;42.962;1.596;2023-02-08T07:09:33;98110.66;;;-2.65;100.00
58771;BME280;44539;42.962;1.596;2023-02-08T07:11:59;98112.34;;;-2.83;100.00
58771;BME280;44539;42.962;1.596;2023-02-08T07:14:32;98105.47;;;-2.65;100.00
58771;BME280;44539;42.962;1.596;2023-02-08T07:16:58;98106.31;;;-2.65;100.00
58771;BME280;44539;42.962;1.596;2023-02-08T07:19:24;98104.06;;;-2.54;100.00
58771;BME280;44539;42.962;1.596;2023-02-08T07:21:50;98107.72;;;-2.39;100.00
58771;BME280;44539;42.962;1.596;2023-02-08T07:24:15;98109.56;;;-2.41;100.00
58771;BME280;44539;42.962;1.596;2023-02-08T07:26:40;98119.88;;;-2.39;100.00
58771;BME280;44539;42.962;1.596;2023-02-08T07:29:06;98121.00;;;-2.45;100.00
58771;BME280;44539;42.962;1.596;2023-02-08T07:31:31;98120.78;;;-2.40;100.00
58771;BME280;44539;42.962;1.596;2023-02-08T07:33:58;98116.44;;;-2.40;100.00
58771;BME280;44539;42.962;1.596;2023-02-08T07:36:23;98118.81;;;-2.35;100.00
58771;BME280;44539;42.962;1.596;2023-02-08T07:38:49;98127.88;;;-2.63;100.00
58771;BME280;44539;42.962;1.596;2023-02-08T07:41:14;98121.91;;;-2.65;100.00
58771;BME280;44539;42.962;1.596;2023-02-08T07:43:40;98127.53;;;-2.55;100.00
58771;BME280;44539;42.962;1.596;2023-02-08T07:48:35;98151.81;;;-2.36;100.00
58771;BME280;44539;42.962;1.596;2023-02-08T07:51:01;98147.59;;;-2.19;100.00
58771;BME280;44539;42.962;1.596;2023-02-08T07:53:27;98152.03;;;-2.21;100.00
58771;BME280;44539;42.962;1.596;2023-02-08T07:55:53;98140.19;;;-2.29;100.00
58771;BME280;44539;42.962;1.596;2023-02-08T07:58:18;98145.13;;;-2.41;100.00
58771;BME280;44539;42.962;1.596;2023-02-08T08:00:44;98145.13;;;-2.41;100.00
58771;BME280;44539;42.962;1.596;2023-02-08T08:03:09;98142.31;;;-2.37;100.00
58771;BME280;44539;42.962;1.596;2023-02-08T08:05:35;98147.81;;;-2.43;100.00
58771;BME280;44539;42.962;1.596;2023-02-08T08:08:00;98149.53;;;-2.43;100.00
58771;BME280;44539;42.962;1.596;2023-02-08T08:10:26;98144.94;;;-2.37;100.00
58771;BME280;44539;42.962;1.596;2023-02-08T08:12:51;98144.72;;;-2.32;100.00
58771;BME280;44539;42.962;1.596;2023-02-08T08:15:16;98145.81;;;-2.38;100.00
58771;BME280;44539;42.962;1.596;2023-02-08T08:17:42;98133.09;;;-2.44;100.00
58771;BME280;44539;42.962;1.596;2023-02-08T08:20:09;98140.13;;;-2.46;100.00
58771;BME280;44539;42.962;1.596;2023-02-08T08:22:35;98142.31;;;-2.56;100.00
58771;BME280;44539;42.962;1.596;2023-02-08T08:25:01;98144.72;;;-2.51;100.00
58771;BME280;44539;42.962;1.596;2023-02-08T08:27:26;98145.31;;;-2.46;100.00
58771;BME280;44539;42.962;1.596;2023-02-08T08:29:52;98145.31;;;-2.46;100.00
58771;BME280;44539;42.962;1.596;2023-02-08T08:32:17;98153.47;;;-2.35;100.00
58771;BME280;44539;42.962;1.596;2023-02-08T08:34:42;98146.38;;;-2.31;100.00
58771;BME280;44539;42.962;1.596;2023-02-08T08:37:08;98150.31;;;-2.22;100.00
58771;BME280;44539;42.962;1.596;2023-02-08T08:39:33;98141.38;;;-2.17;100.00
58771;BME280;44539;42.962;1.596;2023-02-08T08:42:00;98136.56;;;-2.07;100.00
58771;BME280;44539;42.962;1.596;2023-02-08T08:44:28;98141.97;;;-1.93;100.00
58771;BME280;44539;42.962;1.596;2023-02-08T08:46:58;98144.13;;;-1.83;100.00
58771;BME280;44539;42.962;1.596;2023-02-08T08:49:25;98141.41;;;-1.80;100.00
58771;BME280;44539;42.962;1.596;2023-02-08T08:51:50;98142.72;;;-1.72;100.00
58771;BME280;44539;42.962;1.596;2023-02-08T08:54:16;98148.78;;;-1.54;100.00
58771;BME280;44539;42.962;1.596;2023-02-08T08:56:42;98140.75;;;-1.49;100.00
58771;BME280;44539;42.962;1.596;2023-02-08T08:59:07;98144.25;;;-1.33;100.00
58771;BME280;44539;42.962;1.596;2023-02-08T09:01:33;98141.06;;;-1.20;100.00
58771;BME280;44539;42.962;1.596;2023-02-08T09:03:58;98135.50;;;-0.97;100.00
58771;BME280;44539;42.962;1.596;2023-02-08T09:06:24;98148.19;;;-0.73;100.00
58771;BME280;44539;42.962;1.596;2023-02-08T09:08:49;98142.34;;;-0.61;100.00
58771;BME280;44539;42.962;1.596;2023-02-08T09:11:15;98140.50;;;-0.43;100.00
58771;BME280;44539;42.962;1.596;2023-02-08T09:13:41;98133.53;;;-0.27;100.00
58771;BME280;44539;42.962;1.596;2023-02-08T09:16:12;98131.16;;;-0.15;100.00
58771;BME280;44539;42.962;1.596;2023-02-08T09:18:38;98132.03;;;0.01;100.00
58771;BME280;44539;42.962;1.596;2023-02-08T09:21:10;98122.97;;;0.23;100.00
58771;BME280;44539;42.962;1.596;2023-02-08T09:23:36;98126.97;;;0.44;100.00
58771;BME280;44539;42.962;1.596;2023-02-08T09:26:07;98127.94;;;0.57;100.00
58771;BME280;44539;42.962;1.596;2023-02-08T09:28:33;98122.75;;;0.72;100.00
58771;BME280;44539;42.962;1.596;2023-02-08T09:31:08;98111.56;;;0.70;100.00
58771;BME280;44539;42.962;1.596;2023-02-08T09:33:34;98123.72;;;0.85;100.00
58771;BME280;44539;42.962;1.596;2023-02-08T09:35:59;98121.69;;;0.90;100.00
58771;BME280;44539;42.962;1.596;2023-02-08T09:38:25;98131.22;;;1.06;100.00
58771;BME280;44539;42.962;1.596;2023-02-08T09:46:31;98132.56;;;1.56;100.00
58771;BME280;44539;42.962;1.596;2023-02-08T09:48:59;98126.38;;;1.71;100.00
58771;BME280;44539;42.962;1.596;2023-02-08T09:51:34;98124.75;;;1.83;100.00
58771;BME280;44539;42.962;1.596;2023-02-08T09:54:06;98119.56;;;1.96;100.00
58771;BME280;44539;42.962;1.596;2023-02-08T09:56:35;98125.56;;;1.98;100.00
58771;BME280;44539;42.962;1.596;2023-02-08T09:59:05;98127.06;;;2.29;100.00
58771;BME280;44539;42.962;1.596;2023-02-08T10:01:33;98125.09;;;2.33;100.00
58771;BME280;44539;42.962;1.596;2023-02-08T10:06:52;98123.06;;;2.63;100.00
58771;BME280;44539;42.962;1.596;2023-02-08T10:09:20;98127.59;;;2.74;100.00
58771;BME280;44539;42.962;1.596;2023-02-08T10:30:56;98133.44;;;4.17;100.00
58771;BME280;44539;42.962;1.596;2023-02-08T10:36:14;98142.13;;;4.30;100.00
58771;BME280;44539;42.962;1.596;2023-02-08T10:38:41;98140.41;;;4.42;100.00
58771;BME280;44539;42.962;1.596;2023-02-08T10:41:08;98148.28;;;4.42;98.67
58771;BME280;44539;42.962;1.596;2023-02-08T10:43:43;98135.53;;;4.49;99.43
58771;BME280;44539;42.962;1.596;2023-02-08T10:46:25;98140.69;;;4.50;99.31
58771;BME280;44539;42.962;1.596;2023-02-08T10:51:35;98128.31;;;4.75;95.19
58771;BME280;44539;42.962;1.596;2023-02-08T10:54:01;98129.94;;;4.89;96.26
58771;BME280;44539;42.962;1.596;2023-02-08T10:58:59;98134.31;;;5.24;93.78
58771;BME280;44539;42.962;1.596;2023-02-08T11:01:27;98129.28;;;5.21;90.74
58771;BME280;44539;42.962;1.596;2023-02-08T11:04:06;98123.66;;;5.37;90.54
58771;BME280;44539;42.962;1.596;2023-02-08T11:06:34;98118.50;;;5.35;87.93
58771;BME280;44539;42.962;1.596;2023-02-08T11:08:59;98123.78;;;5.35;87.49
58771;BME280;44539;42.962;1.596;2023-02-08T11:11:25;98110.97;;;5.42;87.92
58771;BME280;44539;42.962;1.596;2023-02-08T11:13:52;98108.44;;;5.29;87.55
58771;BME280;44539;42.962;1.596;2023-02-08T11:16:22;98105.13;;;5.38;88.80
58771;BME280;44539;42.962;1.596;2023-02-08T11:18:54;98092.28;;;5.79;87.44
58771;BME280;44539;42.962;1.596;2023-02-08T11:21:38;98091.09;;;5.60;84.98
58771;BME280;44539;42.962;1.596;2023-02-08T11:24:25;98093.75;;;5.49;87.45
58771;BME280;44539;42.962;1.596;2023-02-08T11:26:51;98081.38;;;5.61;87.08
58771;BME280;44539;42.962;1.596;2023-02-08T11:29:25;98077.38;;;6.11;88.55
58771;BME280;44539;42.962;1.596;2023-02-08T11:36:55;98070.09;;;6.68;81.47
58771;BME280;44539;42.962;1.596;2023-02-08T11:39:25;98056.47;;;6.94;79.67
58771;BME280;44539;42.962;1.596;2023-02-08T11:41:55;98056.00;;;7.10;79.19
58771;BME280;44539;42.962;1.596;2023-02-08T11:44:26;98052.13;;;7.14;80.07
58771;BME280;44539;42.962;1.596;2023-02-08T11:46:52;98040.81;;;7.33;78.30
58771;BME280;44539;42.962;1.596;2023-02-08T11:49:21;98039.66;;;7.56;76.15
58771;BME280;44539;42.962;1.596;2023-02-08T11:51:47;98031.84;;;7.45;75.68
58771;BME280;44539;42.962;1.596;2023-02-08T11:54:50;98028.25;;;7.56;76.45
58771;BME280;44539;42.962;1.596;2023-02-08T11:57:16;98030.66;;;7.69;76.15
58771;BME280;44539;42.962;1.596;2023-02-08T12:01:04;98020.25;;;8.06;72.52
58771;BME280;44539;42.962;1.596;2023-02-08T12:03:35;98017.06;;;8.12;72.95
58771;BME280;44539;42.962;1.596;2023-02-08T12:20:42;98009.56;;;8.17;72.00
58771;BME280;44539;42.962;1.596;2023-02-08T12:26:33;98002.69;;;7.76;72.45
58771;BME280;44539;42.962;1.596;2023-02-08T12:29:25;97999.66;;;8.10;72.32
58771;BME280;44539;42.962;1.596;2023-02-08T12:32:04;97993.53;;;8.19;71.25
58771;BME280;44539;42.962;1.596;2023-02-08T12:34:47;97987.63;;;7.76;72.53
58771;BME280;44539;42.962;1.596;2023-02-08T12:49:09;97965.06;;;7.43;73.58
58771;BME280;44539;42.962;1.596;2023-02-08T12:54:44;97953.56;;;7.13;75.14
58771;BME280;44539;42.962;1.596;2023-02-08T12:57:13;97955.97;;;6.95;76.66
58771;BME280;44539;42.962;1.596;2023-02-08T12:59:48;97955.38;;;6.82;77.08
58771;BME280;44539;42.962;1.596;2023-02-08T13:02:23;97951.91;;;6.82;77.98
58771;BME280;44539;42.962;1.596;2023-02-08T13:04:54;97948.44;;;6.81;78.52
58771;BME280;44539;42.962;1.596;2023-02-08T13:07:34;97946.09;;;6.88;78.46
58771;BME280;44539;42.962;1.596;2023-02-08T13:10:14;97934.31;;;7.62;76.02
58771;BME280;44539;42.962;1.596;2023-02-08T13:12:47;97942.53;;;8.17;72.34
58771;BME280;44539;42.962;1.596;2023-02-08T13:15:23;97932.97;;;8.83;69.56
58771;BME280;44539;42.962;1.596;2023-02-08T13:18:00;97933.78;;;8.93;68.47
58771;BME280;44539;42.962;1.596;2023-02-08T13:20:37;97933.81;;;9.11;68.31
58771;BME280;44539;42.962;1.596;2023-02-08T13:23:24;97930.47;;;9.82;67.99
58771;BME280;44539;42.962;1.596;2023-02-08T13:25:54;97933.22;;;9.27;66.70
58771;BME280;44539;42.962;1.596;2023-02-08T13:28:23;97925.13;;;9.46;66.60
58771;BME280;44539;42.962;1.596;2023-02-08T13:30:59;97922.59;;;9.90;66.07
58771;BME280;44539;42.962;1.596;2023-02-08T13:35:57;97923.22;;;9.84;64.46
58771;BME280;44539;42.962;1.596;2023-02-08T13:38:32;97929.69;;;10.44;65.13
58771;BME280;44539;42.962;1.596;2023-02-08T13:41:16;97926.09;;;10.53;63.16
58771;BME280;44539;42.962;1.596;2023-02-08T13:44:08;97925.66;;;11.26;61.91
58771;BME280;44539;42.962;1.596;2023-02-08T13:46:46;97924.31;;;10.35;61.84
58771;BME280;44539;42.962;1.596;2023-02-08T14:01:01;97919.16;;;11.29;59.93
58771;BME280;44539;42.962;1.596;2023-02-08T14:03:32;97918.69;;;10.91;60.96
58771;BME280;44539;42.962;1.596;2023-02-08T14:06:14;97922.53;;;9.82;63.24
58771;BME280;44539;42.962;1.596;2023-02-08T14:08:54;97930.59;;;9.17;65.49
58771;BME280;44539;42.962;1.596;2023-02-08T14:11:47;97931.34;;;9.09;67.52
58771;BME280;44539;42.962;1.596;2023-02-08T14:14:17;97927.88;;;8.62;69.05
58771;BME280;44539;42.962;1.596;2023-02-08T14:16:46;97918.56;;;9.23;67.50
58771;BME280;44539;42.962;1.596;2023-02-08T14:19:33;97930.44;;;8.91;67.78
58771;BME280;44539;42.962;1.596;2023-02-08T14:24:37;97928.47;;;9.48;65.04
58771;BME280;44539;42.962;1.596;2023-02-08T14:27:10;97936.41;;;9.03;67.46
58771;BME280;44539;42.962;1.596;2023-02-08T14:29:42;97936.72;;;8.90;67.47
58771;BME280;44539;42.962;1.596;2023-02-08T14:32:07;97926.59;;;8.75;68.38
58771;BME280;44539;42.962;1.596;2023-02-08T14:34:37;97933.59;;;8.67;67.69
58771;BME280;44539;42.962;1.596;2023-02-08T14:39:35;97929.56;;;8.53;68.10
58771;BME280;44539;42.962;1.596;2023-02-08T14:42:05;97935.31;;;8.48;70.23
58771;BME280;44539;42.962;1.596;2023-02-08T14:50:07;97932.47;;;8.69;67.23
58771;BME280;44539;42.962;1.596;2023-02-08T14:52:38;97927.34;;;8.58;69.24
58771;BME280;44539;42.962;1.596;2023-02-08T14:55:12;97932.22;;;8.33;70.05
58771;BME280;44539;42.962;1.596;2023-02-08T14:57:40;97933.22;;;7.93;70.68
58771;BME280;44539;42.962;1.596;2023-02-08T15:00:16;97933.53;;;8.00;71.69
58771;BME280;44539;42.962;1.596;2023-02-08T15:02:45;97929.16;;;7.41;72.10
58771;BME280;44539;42.962;1.596;2023-02-08T15:05:22;97930.81;;;7.42;74.42
58771;BME280;44539;42.962;1.596;2023-02-08T15:10:20;97933.63;;;7.50;73.39
58771;BME280;44539;42.962;1.596;2023-02-08T15:12:50;97929.41;;;7.38;74.46
58771;BME280;44539;42.962;1.596;2023-02-08T15:15:28;97933.22;;;7.54;73.18
58771;BME280;44539;42.962;1.596;2023-02-08T15:17:55;97924.41;;;7.34;73.63
58771;BME280;44539;42.962;1.596;2023-02-08T15:20:27;97935.41;;;7.40;72.98
58771;BME280;44539;42.962;1.596;2023-02-08T15:23:05;97936.06;;;7.22;76.13
58771;BME280;44539;42.962;1.596;2023-02-08T15:25:41;97934.53;;;7.29;74.76
58771;BME280;44539;42.962;1.596;2023-02-08T15:28:19;97938.47;;;7.35;73.20
58771;BME280;44539;42.962;1.596;2023-02-08T15:30:45;97933.25;;;7.14;72.90
58771;BME280;44539;42.962;1.596;2023-02-08T15:33:17;97937.88;;;7.22;72.95
58771;BME280;44539;42.962;1.596;2023-02-08T15:35:44;97935.81;;;7.35;72.75
58771;BME280;44539;42.962;1.596;2023-02-08T15:38:16;97935.69;;;7.46;71.94
58771;BME280;44539;42.962;1.596;2023-02-08T15:40:42;97935.03;;;7.54;71.03
58771;BME280;44539;42.962;1.596;2023-02-08T15:43:23;97935.81;;;7.35;70.68
58771;BME280;44539;42.962;1.596;2023-02-08T15:45:56;97937.53;;;7.55;70.81
58771;BME280;44539;42.962;1.596;2023-02-08T15:48:21;97939.47;;;7.53;71.14
58771;BME280;44539;42.962;1.596;2023-02-08T15:50:48;97946.81;;;7.40;71.15
58771;BME280;44539;42.962;1.596;2023-02-08T15:53:14;97952.63;;;7.24;72.17
58771;BME280;44539;42.962;1.596;2023-02-08T15:55:48;97952.78;;;7.32;71.89
58771;BME280;44539;42.962;1.596;2023-02-08T16:00:43;97945.41;;;7.26;71.27
58771;BME280;44539;42.962;1.596;2023-02-08T16:03:19;97952.97;;;7.00;72.38
58771;BME280;44539;42.962;1.596;2023-02-08T16:05:49;97957.66;;;6.97;73.50
58771;BME280;44539;42.962;1.596;2023-02-08T16:08:27;97956.38;;;6.91;73.64